createdAt,value
2023-01-13T00:01:32.715Z,8.50
2023-01-13T00:04:01.688Z,8.50
2023-01-13T00:06:30.429Z,8.50
2023-01-13T00:09:00.617Z,8.50
2023-01-13T00:11:29.392Z,8.50
2023-01-13T00:13:58.120Z,8.40
2023-01-13T00:16:26.915Z,8.40
2023-01-13T00:18:55.612Z,8.40
2023-01-13T00:21:26.159Z,8.40
2023-01-13T00:23:56.774Z,8.40
2023-01-13T00:26:30.732Z,8.40
2023-01-13T00:29:01.185Z,8.40
2023-01-13T00:31:31.204Z,8.40
2023-01-13T00:34:01.350Z,8.40
2023-01-13T00:36:32.006Z,8.40
2023-01-13T00:39:01.315Z,8.40
2023-01-13T00:41:51.571Z,8.30
2023-01-13T00:44:19.552Z,8.40
2023-01-13T00:46:48.329Z,8.40
2023-01-13T00:49:17.048Z,8.40
2023-01-13T00:51:45.785Z,8.40
2023-01-13T00:54:14.415Z,8.40
2023-01-13T00:56:44.604Z,8.30
2023-01-13T00:59:15.201Z,8.30
2023-01-13T01:01:45.258Z,8.30
2023-01-13T01:04:14.127Z,8.30
2023-01-13T01:06:42.865Z,8.30
2023-01-13T01:09:15.323Z,8.30
2023-01-13T01:11:46.179Z,8.30
2023-01-13T01:14:15.884Z,8.30
2023-01-13T01:16:44.745Z,8.30
2023-01-13T01:19:13.426Z,8.30
2023-01-13T01:21:42.086Z,8.30
2023-01-13T01:24:11.458Z,8.30
2023-01-13T01:26:42.006Z,8.30
2023-01-13T01:29:16.368Z,8.30
2023-01-13T01:31:45.299Z,8.30
2023-01-13T01:34:13.946Z,8.30
2023-01-13T01:36:42.781Z,8.30
2023-01-13T01:39:12.199Z,8.30
2023-01-13T01:42:01.055Z,8.30
2023-01-13T01:44:58.858Z,8.20
2023-01-13T01:47:29.171Z,8.10
2023-01-13T01:50:00.233Z,8.20
2023-01-13T01:52:37.022Z,8.20
2023-01-13T01:55:11.197Z,8.20
2023-01-13T01:57:46.390Z,8.30
2023-01-13T02:00:17.263Z,8.20
2023-01-13T02:02:49.703Z,8.20
2023-01-13T02:05:19.039Z,8.20
2023-01-13T02:07:52.715Z,8.20
2023-01-13T02:10:26.192Z,8.20
2023-01-13T02:12:59.295Z,8.20
2023-01-13T02:15:41.399Z,8.10
2023-01-13T02:18:43.911Z,8.10
2023-01-13T02:22:16.731Z,8.20
2023-01-13T02:25:13.244Z,8.10
2023-01-13T02:28:26.744Z,8.20
2023-01-13T02:31:24.107Z,8.20
2023-01-13T02:34:07.124Z,8.20
2023-01-13T02:36:50.105Z,8.20
2023-01-13T02:39:28.735Z,8.20
2023-01-13T02:42:24.094Z,8.20
2023-01-13T02:44:59.822Z,8.30
2023-01-13T02:47:37.285Z,8.20
2023-01-13T02:50:13.147Z,8.10
2023-01-13T02:52:47.707Z,8.20
2023-01-13T02:55:22.181Z,8.20
2023-01-13T02:57:54.324Z,8.20
2023-01-13T03:00:24.931Z,8.20
2023-01-13T03:02:57.321Z,8.20
2023-01-13T03:05:27.347Z,8.20
2023-01-13T03:08:15.876Z,8.20
2023-01-13T03:11:08.830Z,8.30
2023-01-13T03:14:08.167Z,8.30
2023-01-13T03:16:55.303Z,8.30
2023-01-13T03:19:40.299Z,8.30
2023-01-13T03:22:23.005Z,8.30
2023-01-13T03:25:01.605Z,8.30
2023-01-13T03:27:43.661Z,8.30
2023-01-13T03:30:21.536Z,8.30
2023-01-13T03:32:57.457Z,8.30
2023-01-13T03:35:33.980Z,8.30
2023-01-13T03:38:09.638Z,8.30
2023-01-13T03:40:46.818Z,8.30
2023-01-13T03:43:39.554Z,8.30
2023-01-13T03:46:18.094Z,8.30
2023-01-13T03:48:52.169Z,8.30
2023-01-13T03:51:30.057Z,8.30
2023-01-13T03:54:05.916Z,8.30
2023-01-13T03:56:44.292Z,8.30
2023-01-13T03:59:21.149Z,8.30
2023-01-13T04:02:00.975Z,8.30
2023-01-13T04:04:36.022Z,8.30
2023-01-13T04:07:21.791Z,8.30
2023-01-13T04:09:55.902Z,8.30
2023-01-13T04:12:51.237Z,8.30
2023-01-13T04:15:23.834Z,8.30
2023-01-13T04:17:53.379Z,8.30
2023-01-13T04:20:22.405Z,8.40
2023-01-13T04:22:52.431Z,8.40
2023-01-13T04:25:21.203Z,8.40
2023-01-13T04:27:49.883Z,8.40
2023-01-13T04:30:19.276Z,8.40
2023-01-13T04:32:48.003Z,8.40
2023-01-13T04:35:16.831Z,8.40
2023-01-13T04:37:45.460Z,8.40
2023-01-13T04:40:16.089Z,8.40
2023-01-13T04:42:46.071Z,8.50
2023-01-13T04:45:15.410Z,8.40
2023-01-13T04:47:44.130Z,8.40
2023-01-13T04:50:13.273Z,8.40
2023-01-13T04:52:42.336Z,8.40
2023-01-13T04:55:11.977Z,8.40
2023-01-13T04:57:42.147Z,8.40
2023-01-13T05:00:16.026Z,8.40
2023-01-13T05:02:45.152Z,8.40
2023-01-13T05:05:13.928Z,8.50
2023-01-13T05:07:43.032Z,8.60
2023-01-13T05:10:13.176Z,8.50
2023-01-13T05:13:00.982Z,8.50
2023-01-13T05:15:46.905Z,8.50
2023-01-13T05:18:16.422Z,8.50
2023-01-13T05:20:45.171Z,8.50
2023-01-13T05:23:32.366Z,8.50
2023-01-13T05:26:01.441Z,8.50
2023-01-13T05:28:35.847Z,8.60
2023-01-13T05:31:04.721Z,8.60
2023-01-13T05:33:35.758Z,8.60
2023-01-13T05:36:05.923Z,8.60
2023-01-13T05:38:34.602Z,8.60
2023-01-13T05:41:20.600Z,8.50
2023-01-13T05:43:50.736Z,8.50
2023-01-13T05:46:19.671Z,8.50
2023-01-13T05:48:48.300Z,8.50
2023-01-13T05:51:17.157Z,8.60
2023-01-13T05:53:45.831Z,8.50
2023-01-13T05:56:14.445Z,8.50
2023-01-13T05:58:43.038Z,8.50
2023-01-13T06:01:13.198Z,8.50
2023-01-13T06:03:41.798Z,8.40
2023-01-13T06:06:10.475Z,8.40
2023-01-13T06:08:39.980Z,8.40
2023-01-13T06:11:08.829Z,8.40
2023-01-13T06:13:37.594Z,8.40
2023-01-13T06:16:07.004Z,8.40
2023-01-13T06:18:37.087Z,8.40
2023-01-13T06:21:06.244Z,8.40
2023-01-13T06:23:38.602Z,8.40
2023-01-13T06:26:16.733Z,8.40
2023-01-13T06:28:45.574Z,8.40
2023-01-13T06:31:15.309Z,8.40
2023-01-13T06:33:52.270Z,8.50
2023-01-13T06:36:26.536Z,8.50
2023-01-13T06:39:01.387Z,8.50
2023-01-13T06:41:50.283Z,8.40
2023-01-13T06:44:21.020Z,8.40
2023-01-13T06:46:52.544Z,8.40
2023-01-13T06:49:22.767Z,8.50
2023-01-13T06:51:52.086Z,8.60
2023-01-13T06:54:20.908Z,8.50
2023-01-13T06:56:49.815Z,8.50
2023-01-13T06:59:18.466Z,8.60
2023-01-13T07:01:47.393Z,8.60
2023-01-13T07:04:16.129Z,8.50
2023-01-13T07:06:46.217Z,8.50
2023-01-13T07:09:17.829Z,8.50
2023-01-13T07:11:46.825Z,8.50
2023-01-13T07:14:33.341Z,8.50
2023-01-13T07:17:01.976Z,8.50
2023-01-13T07:19:30.667Z,8.50
2023-01-13T07:22:00.679Z,8.50
2023-01-13T07:24:29.343Z,8.50
2023-01-13T07:26:58.035Z,8.40
2023-01-13T07:29:26.935Z,8.50
2023-01-13T07:31:55.680Z,8.50
2023-01-13T07:34:24.291Z,8.50
2023-01-13T07:36:52.960Z,8.50
2023-01-13T07:39:23.033Z,8.50
2023-01-13T07:42:08.718Z,8.50
2023-01-13T07:44:37.464Z,8.50
2023-01-13T07:47:08.629Z,8.50
2023-01-13T07:49:37.355Z,8.50
2023-01-13T07:52:06.641Z,8.50
2023-01-13T07:54:40.974Z,8.50
2023-01-13T07:57:10.132Z,8.40
2023-01-13T07:59:39.024Z,8.40
2023-01-13T08:02:11.954Z,8.50
2023-01-13T08:04:41.366Z,8.40
2023-01-13T08:07:10.069Z,8.50
2023-01-13T08:09:40.113Z,8.50
2023-01-13T08:12:26.702Z,8.50
2023-01-13T08:14:55.560Z,8.50
2023-01-13T08:17:24.476Z,8.50
2023-01-13T08:19:53.269Z,8.60
2023-01-13T08:22:22.873Z,8.60
2023-01-13T08:24:53.031Z,8.60
2023-01-13T08:27:21.700Z,8.60
2023-01-13T08:29:50.331Z,8.60
2023-01-13T08:32:19.053Z,8.60
2023-01-13T08:34:47.674Z,8.60
2023-01-13T08:37:16.588Z,8.60
2023-01-13T08:39:45.390Z,8.60
2023-01-13T08:42:15.538Z,8.60
2023-01-13T08:44:44.179Z,8.70
2023-01-13T08:47:12.889Z,8.70
2023-01-13T08:49:41.743Z,8.70
2023-01-13T08:52:10.610Z,8.80
2023-01-13T08:54:40.304Z,8.70
2023-01-13T08:57:09.496Z,8.80
2023-01-13T08:59:40.115Z,8.80
2023-01-13T09:02:16.791Z,8.80
2023-01-13T09:04:46.497Z,8.80
2023-01-13T09:07:15.861Z,8.80
2023-01-13T09:09:44.635Z,8.90
2023-01-13T09:12:33.191Z,8.90
2023-01-13T09:15:03.624Z,9.00
2023-01-13T09:17:32.262Z,9.00
2023-01-13T09:20:01.020Z,9.10
2023-01-13T09:22:31.654Z,9.10
2023-01-13T09:25:00.354Z,9.10
2023-01-13T09:27:29.018Z,9.10
2023-01-13T09:29:57.996Z,9.10
2023-01-13T09:32:28.248Z,8.80
2023-01-13T09:35:01.701Z,8.60
2023-01-13T09:37:34.209Z,8.30
2023-01-13T09:40:03.932Z,8.30
2023-01-13T09:43:03.041Z,8.30
2023-01-13T09:45:40.022Z,8.30
2023-01-13T09:48:20.362Z,8.40
2023-01-13T09:51:16.895Z,8.50
2023-01-13T09:53:55.914Z,8.50
2023-01-13T09:56:25.788Z,8.60
2023-01-13T09:58:54.732Z,8.50
2023-01-13T10:01:33.543Z,8.50
2023-01-13T10:04:11.690Z,8.50
2023-01-13T10:06:43.322Z,8.60
2023-01-13T10:09:18.434Z,8.50
2023-01-13T10:12:09.429Z,8.40
2023-01-13T10:14:44.847Z,8.40
2023-01-13T10:17:25.897Z,8.40
2023-01-13T10:20:04.964Z,8.40
2023-01-13T10:22:54.529Z,8.40
2023-01-13T10:25:36.007Z,8.40
2023-01-13T10:28:12.697Z,8.40
2023-01-13T10:30:44.940Z,8.40
2023-01-13T10:33:17.603Z,8.40
2023-01-13T10:35:59.257Z,8.40
2023-01-13T10:38:31.773Z,8.40
2023-01-13T10:41:02.951Z,8.50
2023-01-13T10:43:32.880Z,8.50
2023-01-13T10:46:06.695Z,8.60
2023-01-13T10:48:40.355Z,8.50
2023-01-13T10:51:24.373Z,8.50
2023-01-13T10:54:01.760Z,8.50
2023-01-13T10:56:34.661Z,8.60
2023-01-13T10:59:26.966Z,8.60
2023-01-13T11:02:13.163Z,8.70
2023-01-13T11:05:19.667Z,8.70
2023-01-13T11:07:54.243Z,8.70
2023-01-13T11:10:27.459Z,8.70
2023-01-13T11:13:08.569Z,8.70
2023-01-13T11:15:46.832Z,8.70
2023-01-13T11:18:29.206Z,8.70
2023-01-13T11:21:01.516Z,8.60
2023-01-13T11:23:39.515Z,8.60
2023-01-13T11:26:17.152Z,8.50
2023-01-13T11:29:01.401Z,8.40
2023-01-13T11:31:37.586Z,8.50
2023-01-13T11:34:26.784Z,8.50
2023-01-13T11:37:02.315Z,8.60
2023-01-13T11:39:53.859Z,8.60
2023-01-13T11:42:29.412Z,8.60
2023-01-13T11:45:16.924Z,8.50
2023-01-13T11:47:48.802Z,8.60
2023-01-13T11:50:29.224Z,8.50
2023-01-13T11:53:17.833Z,8.50
2023-01-13T11:56:02.546Z,8.50
2023-01-13T11:59:07.029Z,8.50
2023-01-13T12:02:03.532Z,8.40
2023-01-13T12:04:50.541Z,8.40
2023-01-13T12:07:33.494Z,8.40
2023-01-13T12:10:13.244Z,8.50
2023-01-13T12:12:54.862Z,8.50
2023-01-13T12:15:55.352Z,8.60
2023-01-13T12:18:44.021Z,8.60
2023-01-13T12:21:26.919Z,8.70
2023-01-13T12:24:13.999Z,8.60
2023-01-13T12:26:50.792Z,8.60
2023-01-13T12:29:25.379Z,8.60
2023-01-13T12:31:54.809Z,8.60
2023-01-13T12:34:38.630Z,8.60
2023-01-13T12:37:19.355Z,8.50
2023-01-13T12:40:05.184Z,8.50
2023-01-13T12:43:02.773Z,8.50
2023-01-13T12:45:34.609Z,8.40
2023-01-13T12:48:03.765Z,8.40
2023-01-13T12:50:44.744Z,8.40
2023-01-13T12:53:46.603Z,8.30
2023-01-13T12:56:46.115Z,8.40
2023-01-13T12:59:49.173Z,8.50
2023-01-13T13:02:41.969Z,8.50
2023-01-13T13:05:47.919Z,8.50
2023-01-13T13:08:27.608Z,8.50
2023-01-13T13:11:50.081Z,8.30
2023-01-13T13:15:04.684Z,8.40
2023-01-13T13:18:03.789Z,8.40
2023-01-13T13:21:09.071Z,8.20
2023-01-13T13:24:04.077Z,8.10
2023-01-13T13:26:45.849Z,8.20
2023-01-13T13:29:45.931Z,8.20
2023-01-13T13:32:55.565Z,8.30
2023-01-13T13:35:52.200Z,8.20
2023-01-13T13:39:01.184Z,8.20
2023-01-13T13:41:50.037Z,8.20
2023-01-13T13:44:44.391Z,8.10
2023-01-13T13:47:13.179Z,8.00
2023-01-13T13:49:46.837Z,8.00
2023-01-13T13:52:25.785Z,8.00
2023-01-13T13:54:59.411Z,8.00
2023-01-13T13:57:38.656Z,8.00
2023-01-13T14:00:23.070Z,7.90
2023-01-13T14:02:56.213Z,8.00
2023-01-13T14:05:30.735Z,7.90
2023-01-13T14:08:10.835Z,7.80
2023-01-13T14:10:46.019Z,7.90
2023-01-13T14:13:20.198Z,7.90
2023-01-13T14:15:51.812Z,7.70
2023-01-13T14:18:22.592Z,7.80
2023-01-13T14:21:00.580Z,7.80
2023-01-13T14:23:32.434Z,7.60
2023-01-13T14:26:08.824Z,7.70
2023-01-13T14:28:40.851Z,7.70
2023-01-13T14:31:11.961Z,7.70
2023-01-13T14:33:46.172Z,7.70
2023-01-13T14:36:21.319Z,7.70
2023-01-13T14:39:34.923Z,7.70
2023-01-13T14:42:04.000Z,7.70
2023-01-13T14:44:36.195Z,7.70
2023-01-13T14:47:24.776Z,7.70
2023-01-13T14:50:03.875Z,7.60
2023-01-13T14:52:47.883Z,7.70
2023-01-13T14:55:31.468Z,7.70
2023-01-13T14:58:27.016Z,7.60
2023-01-13T15:01:30.414Z,7.70
2023-01-13T15:04:18.078Z,7.60
2023-01-13T15:06:54.421Z,7.50
2023-01-13T15:09:30.169Z,7.50
2023-01-13T15:11:59.779Z,7.60
2023-01-13T15:14:33.894Z,7.60
2023-01-13T15:17:04.112Z,7.70
2023-01-13T15:19:33.163Z,7.70
2023-01-13T15:22:02.084Z,7.70
2023-01-13T15:24:32.841Z,7.60
2023-01-13T15:27:02.571Z,7.50
2023-01-13T15:29:31.483Z,7.40
2023-01-13T15:32:00.452Z,7.40
2023-01-13T15:34:29.300Z,7.50
2023-01-13T15:36:58.700Z,7.50
2023-01-13T15:39:27.537Z,7.30
2023-01-13T15:42:16.091Z,7.30
2023-01-13T15:45:02.105Z,7.30
2023-01-13T15:47:30.879Z,7.20
2023-01-13T15:49:59.978Z,7.30
2023-01-13T15:52:29.588Z,7.30
2023-01-13T15:54:58.725Z,7.20
2023-01-13T15:57:32.932Z,7.20
2023-01-13T16:00:08.125Z,7.20
2023-01-13T16:02:37.036Z,7.10
2023-01-13T16:05:06.987Z,7.10
2023-01-13T16:07:39.549Z,7.00
2023-01-13T16:10:20.327Z,7.10
2023-01-13T16:12:57.286Z,7.00
2023-01-13T16:15:26.531Z,7.00
2023-01-13T16:18:01.107Z,6.90
2023-01-13T16:20:30.759Z,7.00
2023-01-13T16:22:59.519Z,7.00
2023-01-13T16:25:29.465Z,6.90
2023-01-13T16:27:59.579Z,6.90
2023-01-13T16:30:32.155Z,6.90
2023-01-13T16:33:01.478Z,6.80
2023-01-13T16:35:32.097Z,6.70
2023-01-13T16:38:02.994Z,6.70
2023-01-13T16:40:36.586Z,6.70
2023-01-13T16:43:07.009Z,6.60
2023-01-13T16:45:36.119Z,6.60
2023-01-13T16:48:05.607Z,6.70
2023-01-13T16:50:40.004Z,6.70
2023-01-13T16:53:13.091Z,6.70
2023-01-13T16:55:45.071Z,6.60
2023-01-13T16:58:21.589Z,6.60
2023-01-13T17:01:06.288Z,6.50
2023-01-13T17:03:36.129Z,6.60
2023-01-13T17:06:06.486Z,6.50
2023-01-13T17:08:37.714Z,6.50
2023-01-13T17:11:07.755Z,6.50
2023-01-13T17:13:38.074Z,6.40
2023-01-13T17:16:21.134Z,6.40
2023-01-13T17:18:52.280Z,6.30
2023-01-13T17:21:21.354Z,6.20
2023-01-13T17:23:51.641Z,6.30
2023-01-13T17:26:33.900Z,6.40
2023-01-13T17:29:05.787Z,6.40
2023-01-13T17:31:37.057Z,6.30
2023-01-13T17:34:06.693Z,6.40
2023-01-13T17:36:36.316Z,6.30
2023-01-13T17:39:05.406Z,6.20
2023-01-13T17:41:34.103Z,6.30
2023-01-13T17:44:15.716Z,6.20
2023-01-13T17:46:45.302Z,6.30
2023-01-13T17:49:22.007Z,6.30
2023-01-13T17:51:51.612Z,6.30
2023-01-13T17:54:22.309Z,6.20
2023-01-13T17:56:51.308Z,6.40
2023-01-13T17:59:25.580Z,6.40
2023-01-13T18:02:19.385Z,6.50
2023-01-13T18:04:52.002Z,6.60
2023-01-13T18:07:20.749Z,6.60
2023-01-13T18:09:49.521Z,6.60
2023-01-13T18:12:18.357Z,6.60
2023-01-13T18:14:50.451Z,6.70
2023-01-13T18:17:19.255Z,6.70
2023-01-13T18:20:13.857Z,6.70
2023-01-13T18:22:59.846Z,6.70
2023-01-13T18:25:46.789Z,6.60
2023-01-13T18:28:27.788Z,6.70
2023-01-13T18:30:57.997Z,6.60
2023-01-13T18:33:27.056Z,6.70
2023-01-13T18:35:57.358Z,6.70
2023-01-13T18:38:26.630Z,6.70
2023-01-13T18:40:55.473Z,6.80
2023-01-13T18:43:23.255Z,6.80
2023-01-13T18:45:53.649Z,6.80
2023-01-13T18:48:23.895Z,6.80
2023-01-13T18:50:52.811Z,6.80
2023-01-13T18:53:21.561Z,6.70
2023-01-13T18:55:50.642Z,6.80
2023-01-13T18:58:20.623Z,6.70
2023-01-13T19:00:49.368Z,6.80
2023-01-13T19:03:29.927Z,6.80
2023-01-13T19:06:07.549Z,6.80
2023-01-13T19:08:41.213Z,6.70
2023-01-13T19:11:10.949Z,6.70
2023-01-13T19:13:40.226Z,6.80
2023-01-13T19:16:10.213Z,6.80
2023-01-13T19:18:39.550Z,6.80
2023-01-13T19:21:16.710Z,6.80
2023-01-13T19:23:45.631Z,6.80
2023-01-13T19:26:15.303Z,6.80
2023-01-13T19:28:44.784Z,6.80
2023-01-13T19:31:15.730Z,6.80
2023-01-13T19:33:44.895Z,6.80
2023-01-13T19:36:15.712Z,6.80
2023-01-13T19:38:47.428Z,6.80
2023-01-13T19:41:29.947Z,6.80
2023-01-13T19:44:28.358Z,6.90
2023-01-13T19:46:57.798Z,6.90
2023-01-13T19:49:27.076Z,6.90
2023-01-13T19:52:00.282Z,6.80
2023-01-13T19:54:32.944Z,6.80
2023-01-13T19:57:03.032Z,6.80
2023-01-13T19:59:40.911Z,6.80
2023-01-13T20:02:27.531Z,6.80
2023-01-13T20:05:05.719Z,6.90
2023-01-13T20:07:36.287Z,6.90
2023-01-13T20:10:06.107Z,6.80
2023-01-13T20:12:34.853Z,6.90
2023-01-13T20:15:06.352Z,6.90
2023-01-13T20:17:35.395Z,6.90
2023-01-13T20:20:04.843Z,6.90
2023-01-13T20:22:33.525Z,6.80
2023-01-13T20:25:03.787Z,6.80
2023-01-13T20:27:32.570Z,6.90
2023-01-13T20:30:01.721Z,6.90
2023-01-13T20:32:30.548Z,6.80
2023-01-13T20:34:59.231Z,6.80
2023-01-13T20:37:28.549Z,6.80
2023-01-13T20:39:58.234Z,6.80
2023-01-13T20:42:32.089Z,6.80
2023-01-13T20:45:02.406Z,6.80
2023-01-13T20:47:32.158Z,6.90
2023-01-13T20:50:00.827Z,6.80
2023-01-13T20:52:30.036Z,6.90
2023-01-13T20:55:01.094Z,6.80
2023-01-13T20:57:31.602Z,6.80
2023-01-13T21:00:00.651Z,6.80
2023-01-13T21:02:29.587Z,6.80
2023-01-13T21:04:58.396Z,6.70
2023-01-13T21:07:28.294Z,6.80
2023-01-13T21:09:58.429Z,6.80
2023-01-13T21:12:44.526Z,6.80
2023-01-13T21:15:22.084Z,6.90
2023-01-13T21:18:10.477Z,6.80
2023-01-13T21:20:40.289Z,6.80
2023-01-13T21:23:12.065Z,6.70
2023-01-13T21:25:41.244Z,6.70
2023-01-13T21:28:11.990Z,6.70
2023-01-13T21:30:42.985Z,6.80
2023-01-13T21:33:14.814Z,6.80
2023-01-13T21:35:43.656Z,6.80
2023-01-13T21:38:13.873Z,6.80
2023-01-13T21:40:42.953Z,6.80
2023-01-13T21:43:39.877Z,6.80
2023-01-13T21:46:32.063Z,6.80
2023-01-13T21:49:01.087Z,6.80
2023-01-13T21:51:35.796Z,6.80
2023-01-13T21:54:04.721Z,6.80
2023-01-13T21:56:33.899Z,6.80
2023-01-13T21:59:05.733Z,6.70
2023-01-13T22:01:36.314Z,6.70
2023-01-13T22:04:25.239Z,6.80
2023-01-13T22:06:54.188Z,6.70
2023-01-13T22:09:22.969Z,6.70
2023-01-13T22:11:52.188Z,6.70
2023-01-13T22:14:21.434Z,6.70
2023-01-13T22:16:51.643Z,6.60
2023-01-13T22:19:39.429Z,6.70
2023-01-13T22:22:14.409Z,6.70
2023-01-13T22:24:44.332Z,6.70
2023-01-13T22:27:13.972Z,6.60
2023-01-13T22:29:42.927Z,6.60
2023-01-13T22:32:13.682Z,6.70
2023-01-13T22:34:42.869Z,6.60
2023-01-13T22:37:11.911Z,6.60
2023-01-13T22:39:41.107Z,6.50
2023-01-13T22:42:10.252Z,6.60
2023-01-13T22:44:38.983Z,6.50
2023-01-13T22:47:08.718Z,6.50
2023-01-13T22:49:38.844Z,6.50
2023-01-13T22:52:07.579Z,6.60
2023-01-13T22:54:36.303Z,6.60
2023-01-13T22:57:05.245Z,6.60
2023-01-13T22:59:34.015Z,6.60
2023-01-13T23:02:02.828Z,6.60
2023-01-13T23:04:31.710Z,6.60
2023-01-13T23:07:01.882Z,6.60
2023-01-13T23:09:30.968Z,6.70
2023-01-13T23:12:00.232Z,6.70
2023-01-13T23:14:28.922Z,6.60
2023-01-13T23:16:57.724Z,6.70
2023-01-13T23:19:26.493Z,6.70
2023-01-13T23:21:55.192Z,6.60
2023-01-13T23:24:27.978Z,6.70
2023-01-13T23:26:56.753Z,6.60
2023-01-13T23:29:25.424Z,6.60
2023-01-13T23:31:57.186Z,6.60
2023-01-13T23:34:26.155Z,6.60
2023-01-13T23:36:54.853Z,6.60
2023-01-13T23:39:25.459Z,6.60
2023-01-13T23:41:55.770Z,6.60
2023-01-13T23:44:24.766Z,6.60
2023-01-13T23:46:53.564Z,6.50
2023-01-13T23:49:22.546Z,6.40
2023-01-13T23:51:52.048Z,6.50
2023-01-13T23:54:21.277Z,6.50
2023-01-13T23:56:53.738Z,6.50
2023-01-13T23:59:22.907Z,6.40
